sensor_id;sensor_type;location;lat;lon;timestamp;P1;durP1;ratioP1;P2;durP2;ratioP2
64826;SDS011;51265;53.972;12.286;2022-10-31T00:00:46;17.15;;;14.63;;
64826;SDS011;51265;53.972;12.286;2022-10-31T00:03:12;15.85;;;13.75;;
64826;SDS011;51265;53.972;12.286;2022-10-31T00:05:42;18.92;;;13.50;;
64826;SDS011;51265;53.972;12.286;2022-10-31T00:08:09;15.93;;;12.25;;
64826;SDS011;51265;53.972;12.286;2022-10-31T00:10:38;14.05;;;12.55;;
64826;SDS011;51265;53.972;12.286;2022-10-31T00:13:06;14.85;;;12.70;;
64826;SDS011;51265;53.972;12.286;2022-10-31T00:15:35;19.33;;;13.73;;
64826;SDS011;51265;53.972;12.286;2022-10-31T00:18:03;28.15;;;13.88;;
64826;SDS011;51265;53.972;12.286;2022-10-31T00:20:30;15.10;;;13.18;;
64826;SDS011;51265;53.972;12.286;2022-10-31T00:22:57;15.07;;;13.05;;
64826;SDS011;51265;53.972;12.286;2022-10-31T00:25:24;14.48;;;13.07;;
64826;SDS011;51265;53.972;12.286;2022-10-31T00:27:51;14.95;;;12.93;;
64826;SDS011;51265;53.972;12.286;2022-10-31T00:30:16;12.98;;;11.70;;
64826;SDS011;51265;53.972;12.286;2022-10-31T00:32:43;13.35;;;11.93;;
64826;SDS011;51265;53.972;12.286;2022-10-31T00:35:08;15.00;;;12.50;;
64826;SDS011;51265;53.972;12.286;2022-10-31T00:37:34;15.05;;;13.00;;
64826;SDS011;51265;53.972;12.286;2022-10-31T00:40:01;17.13;;;13.30;;
64826;SDS011;51265;53.972;12.286;2022-10-31T00:42:27;14.73;;;13.23;;
64826;SDS011;51265;53.972;12.286;2022-10-31T00:44:53;16.17;;;13.20;;
64826;SDS011;51265;53.972;12.286;2022-10-31T00:47:19;15.25;;;13.70;;
64826;SDS011;51265;53.972;12.286;2022-10-31T00:49:46;19.90;;;13.60;;
64826;SDS011;51265;53.972;12.286;2022-10-31T00:52:12;14.48;;;12.98;;
64826;SDS011;51265;53.972;12.286;2022-10-31T00:54:38;15.63;;;13.50;;
64826;SDS011;51265;53.972;12.286;2022-10-31T00:57:05;14.55;;;13.00;;
64826;SDS011;51265;53.972;12.286;2022-10-31T00:59:30;15.05;;;12.27;;
64826;SDS011;51265;53.972;12.286;2022-10-31T01:01:57;13.23;;;11.93;;
64826;SDS011;51265;53.972;12.286;2022-10-31T01:04:22;13.70;;;11.30;;
64826;SDS011;51265;53.972;12.286;2022-10-31T01:06:48;15.55;;;11.95;;
64826;SDS011;51265;53.972;12.286;2022-10-31T01:09:15;13.18;;;10.60;;
64826;SDS011;51265;53.972;12.286;2022-10-31T01:11:41;13.23;;;11.80;;
64826;SDS011;51265;53.972;12.286;2022-10-31T01:14:08;13.45;;;11.68;;
64826;SDS011;51265;53.972;12.286;2022-10-31T01:16:34;12.95;;;11.65;;
64826;SDS011;51265;53.972;12.286;2022-10-31T01:19:00;18.10;;;12.65;;
64826;SDS011;51265;53.972;12.286;2022-10-31T01:21:27;17.10;;;12.77;;
64826;SDS011;51265;53.972;12.286;2022-10-31T01:23:57;47.50;;;14.88;;
64826;SDS011;51265;53.972;12.286;2022-10-31T01:26:24;19.60;;;13.27;;
64826;SDS011;51265;53.972;12.286;2022-10-31T01:28:53;19.05;;;14.45;;
64826;SDS011;51265;53.972;12.286;2022-10-31T01:31:22;15.60;;;13.35;;
64826;SDS011;51265;53.972;12.286;2022-10-31T01:33:50;21.27;;;13.13;;
64826;SDS011;51265;53.972;12.286;2022-10-31T01:38:50;17.85;;;14.63;;
64826;SDS011;51265;53.972;12.286;2022-10-31T01:41:18;16.40;;;14.38;;
64826;SDS011;51265;53.972;12.286;2022-10-31T01:43:54;18.65;;;14.15;;
64826;SDS011;51265;53.972;12.286;2022-10-31T01:46:23;16.15;;;13.10;;
64826;SDS011;51265;53.972;12.286;2022-10-31T01:48:52;15.20;;;12.93;;
64826;SDS011;51265;53.972;12.286;2022-10-31T01:51:20;13.65;;;12.00;;
64826;SDS011;51265;53.972;12.286;2022-10-31T01:53:48;15.65;;;13.43;;
64826;SDS011;51265;53.972;12.286;2022-10-31T01:56:17;13.38;;;11.68;;
64826;SDS011;51265;53.972;12.286;2022-10-31T01:58:44;15.88;;;12.73;;
64826;SDS011;51265;53.972;12.286;2022-10-31T02:01:14;24.38;;;13.68;;
64826;SDS011;51265;53.972;12.286;2022-10-31T02:03:42;16.17;;;13.43;;
64826;SDS011;51265;53.972;12.286;2022-10-31T02:06:13;13.40;;;12.10;;
64826;SDS011;51265;53.972;12.286;2022-10-31T02:08:44;14.90;;;13.13;;
64826;SDS011;51265;53.972;12.286;2022-10-31T02:11:11;13.70;;;12.27;;
64826;SDS011;51265;53.972;12.286;2022-10-31T02:13:37;13.25;;;11.88;;
64826;SDS011;51265;53.972;12.286;2022-10-31T02:16:06;68.38;;;12.02;;
64826;SDS011;51265;53.972;12.286;2022-10-31T02:18:34;55.30;;;14.05;;
64826;SDS011;51265;53.972;12.286;2022-10-31T02:23:59;62.38;;;18.25;;
64826;SDS011;51265;53.972;12.286;2022-10-31T02:32:10;75.07;;;16.55;;
64826;SDS011;51265;53.972;12.286;2022-10-31T02:37:46;31.00;;;17.50;;
64826;SDS011;51265;53.972;12.286;2022-10-31T02:43:09;18.45;;;15.50;;
64826;SDS011;51265;53.972;12.286;2022-10-31T02:48:37;20.08;;;14.82;;
64826;SDS011;51265;53.972;12.286;2022-10-31T02:51:05;34.88;;;20.15;;
64826;SDS011;51265;53.972;12.286;2022-10-31T02:53:35;36.90;;;22.63;;
64826;SDS011;51265;53.972;12.286;2022-10-31T02:56:16;43.17;;;23.65;;
64826;SDS011;51265;53.972;12.286;2022-10-31T02:58:46;55.45;;;28.02;;
64826;SDS011;51265;53.972;12.286;2022-10-31T03:09:25;36.80;;;21.45;;
64826;SDS011;51265;53.972;12.286;2022-10-31T03:12:00;31.20;;;20.73;;
64826;SDS011;51265;53.972;12.286;2022-10-31T03:17:25;35.83;;;19.10;;
64826;SDS011;51265;53.972;12.286;2022-10-31T03:19:57;31.80;;;19.13;;
64826;SDS011;51265;53.972;12.286;2022-10-31T03:22:27;33.33;;;20.15;;
64826;SDS011;51265;53.972;12.286;2022-10-31T03:24:59;28.27;;;19.38;;
64826;SDS011;51265;53.972;12.286;2022-10-31T03:27:27;27.33;;;18.48;;
64826;SDS011;51265;53.972;12.286;2022-10-31T03:29:59;28.65;;;19.10;;
64826;SDS011;51265;53.972;12.286;2022-10-31T03:32:37;29.27;;;17.83;;
64826;SDS011;51265;53.972;12.286;2022-10-31T03:35:08;24.60;;;17.38;;
64826;SDS011;51265;53.972;12.286;2022-10-31T03:37:37;23.35;;;17.20;;
64826;SDS011;51265;53.972;12.286;2022-10-31T03:40:10;21.80;;;15.65;;
64826;SDS011;51265;53.972;12.286;2022-10-31T03:42:39;22.52;;;17.13;;
64826;SDS011;51265;53.972;12.286;2022-10-31T03:47:41;24.10;;;15.88;;
64826;SDS011;51265;53.972;12.286;2022-10-31T03:50:09;33.22;;;17.33;;
64826;SDS011;51265;53.972;12.286;2022-10-31T03:52:49;23.50;;;16.40;;
64826;SDS011;51265;53.972;12.286;2022-10-31T03:57:57;39.75;;;18.98;;
64826;SDS011;51265;53.972;12.286;2022-10-31T04:00:24;26.33;;;17.63;;
64826;SDS011;51265;53.972;12.286;2022-10-31T04:05:45;32.97;;;19.63;;
64826;SDS011;51265;53.972;12.286;2022-10-31T04:08:15;31.00;;;18.60;;
64826;SDS011;51265;53.972;12.286;2022-10-31T04:10:46;29.27;;;19.58;;
64826;SDS011;51265;53.972;12.286;2022-10-31T04:13:16;26.08;;;17.45;;
64826;SDS011;51265;53.972;12.286;2022-10-31T04:15:49;28.23;;;17.58;;
64826;SDS011;51265;53.972;12.286;2022-10-31T04:18:18;30.35;;;17.73;;
64826;SDS011;51265;53.972;12.286;2022-10-31T04:20:44;24.02;;;16.88;;
64826;SDS011;51265;53.972;12.286;2022-10-31T04:23:22;28.23;;;17.10;;
64826;SDS011;51265;53.972;12.286;2022-10-31T04:25:50;32.28;;;18.60;;
64826;SDS011;51265;53.972;12.286;2022-10-31T04:28:17;26.65;;;17.05;;
64826;SDS011;51265;53.972;12.286;2022-10-31T04:30:45;26.35;;;17.85;;
64826;SDS011;51265;53.972;12.286;2022-10-31T04:33:11;28.60;;;17.17;;
64826;SDS011;51265;53.972;12.286;2022-10-31T04:35:37;27.02;;;17.70;;
64826;SDS011;51265;53.972;12.286;2022-10-31T04:38:04;28.80;;;17.60;;
64826;SDS011;51265;53.972;12.286;2022-10-31T04:40:30;29.60;;;17.45;;
64826;SDS011;51265;53.972;12.286;2022-10-31T04:43:17;49.75;;;23.92;;
64826;SDS011;51265;53.972;12.286;2022-10-31T04:45:44;61.15;;;28.00;;
64826;SDS011;51265;53.972;12.286;2022-10-31T04:48:11;70.07;;;32.25;;
64826;SDS011;51265;53.972;12.286;2022-10-31T04:50:40;80.50;;;33.97;;
64826;SDS011;51265;53.972;12.286;2022-10-31T04:53:06;77.00;;;37.20;;
64826;SDS011;51265;53.972;12.286;2022-10-31T04:55:39;83.07;;;37.58;;
64826;SDS011;51265;53.972;12.286;2022-10-31T04:58:15;82.22;;;38.25;;
64826;SDS011;51265;53.972;12.286;2022-10-31T05:00:44;73.40;;;38.70;;
64826;SDS011;51265;53.972;12.286;2022-10-31T05:03:11;77.00;;;39.05;;
64826;SDS011;51265;53.972;12.286;2022-10-31T05:05:37;78.93;;;39.05;;
64826;SDS011;51265;53.972;12.286;2022-10-31T05:08:03;87.53;;;39.97;;
64826;SDS011;51265;53.972;12.286;2022-10-31T05:10:31;86.82;;;40.78;;
64826;SDS011;51265;53.972;12.286;2022-10-31T05:13:00;80.22;;;38.65;;
64826;SDS011;51265;53.972;12.286;2022-10-31T05:15:46;75.28;;;38.75;;
64826;SDS011;51265;53.972;12.286;2022-10-31T05:18:14;76.43;;;40.13;;
64826;SDS011;51265;53.972;12.286;2022-10-31T05:20:59;81.18;;;38.90;;
64826;SDS011;51265;53.972;12.286;2022-10-31T05:23:35;89.75;;;40.72;;
64826;SDS011;51265;53.972;12.286;2022-10-31T05:26:01;76.53;;;40.03;;
64826;SDS011;51265;53.972;12.286;2022-10-31T05:28:39;91.85;;;40.50;;
64826;SDS011;51265;53.972;12.286;2022-10-31T05:31:05;88.60;;;40.50;;
64826;SDS011;51265;53.972;12.286;2022-10-31T05:33:31;85.82;;;41.53;;
64826;SDS011;51265;53.972;12.286;2022-10-31T05:36:16;79.13;;;41.08;;
64826;SDS011;51265;53.972;12.286;2022-10-31T05:38:54;81.18;;;40.05;;
64826;SDS011;51265;53.972;12.286;2022-10-31T05:41:26;94.55;;;43.35;;
64826;SDS011;51265;53.972;12.286;2022-10-31T05:44:00;82.97;;;41.70;;
64826;SDS011;51265;53.972;12.286;2022-10-31T05:46:29;91.50;;;43.03;;
64826;SDS011;51265;53.972;12.286;2022-10-31T05:49:12;86.40;;;43.42;;
64826;SDS011;51265;53.972;12.286;2022-10-31T05:51:57;99.63;;;44.17;;
64826;SDS011;51265;53.972;12.286;2022-10-31T05:54:33;98.78;;;44.90;;
64826;SDS011;51265;53.972;12.286;2022-10-31T05:56:59;95.63;;;45.47;;
64826;SDS011;51265;53.972;12.286;2022-10-31T05:59:25;95.55;;;45.70;;
64826;SDS011;51265;53.972;12.286;2022-10-31T06:01:53;102.88;;;49.45;;
64826;SDS011;51265;53.972;12.286;2022-10-31T06:04:32;105.15;;;48.17;;
64826;SDS011;51265;53.972;12.286;2022-10-31T06:06:58;106.80;;;48.03;;
64826;SDS011;51265;53.972;12.286;2022-10-31T06:09:25;113.90;;;53.05;;
64826;SDS011;51265;53.972;12.286;2022-10-31T06:11:51;115.78;;;51.28;;
64826;SDS011;51265;53.972;12.286;2022-10-31T06:14:46;113.78;;;51.85;;
64826;SDS011;51265;53.972;12.286;2022-10-31T06:17:12;112.53;;;51.53;;
64826;SDS011;51265;53.972;12.286;2022-10-31T06:19:47;117.18;;;51.00;;
64826;SDS011;51265;53.972;12.286;2022-10-31T06:22:19;121.05;;;52.05;;
64826;SDS011;51265;53.972;12.286;2022-10-31T06:24:46;124.53;;;51.85;;
64826;SDS011;51265;53.972;12.286;2022-10-31T06:27:27;116.78;;;54.13;;
64826;SDS011;51265;53.972;12.286;2022-10-31T06:29:54;133.43;;;54.00;;
64826;SDS011;51265;53.972;12.286;2022-10-31T06:32:34;129.40;;;54.78;;
64826;SDS011;51265;53.972;12.286;2022-10-31T06:35:01;142.70;;;55.17;;
64826;SDS011;51265;53.972;12.286;2022-10-31T06:37:27;134.68;;;58.42;;
64826;SDS011;51265;53.972;12.286;2022-10-31T06:40:00;126.90;;;54.80;;
64826;SDS011;51265;53.972;12.286;2022-10-31T06:42:26;141.85;;;57.17;;
64826;SDS011;51265;53.972;12.286;2022-10-31T06:44:52;147.65;;;58.22;;
64826;SDS011;51265;53.972;12.286;2022-10-31T06:47:37;147.77;;;59.20;;
64826;SDS011;51265;53.972;12.286;2022-10-31T06:50:09;136.00;;;55.85;;
64826;SDS011;51265;53.972;12.286;2022-10-31T06:52:36;140.25;;;58.63;;
64826;SDS011;51265;53.972;12.286;2022-10-31T06:55:03;156.43;;;60.97;;
64826;SDS011;51265;53.972;12.286;2022-10-31T06:57:31;172.00;;;63.20;;
64826;SDS011;51265;53.972;12.286;2022-10-31T06:59:57;183.95;;;65.78;;
64826;SDS011;51265;53.972;12.286;2022-10-31T07:02:56;219.93;;;66.60;;
64826;SDS011;51265;53.972;12.286;2022-10-31T07:05:28;179.95;;;64.78;;
64826;SDS011;51265;53.972;12.286;2022-10-31T07:07:55;170.38;;;60.60;;
64826;SDS011;51265;53.972;12.286;2022-10-31T07:10:23;217.07;;;69.57;;
64826;SDS011;51265;53.972;12.286;2022-10-31T07:12:58;275.60;;;72.32;;
64826;SDS011;51265;53.972;12.286;2022-10-31T07:15:26;253.02;;;69.15;;
64826;SDS011;51265;53.972;12.286;2022-10-31T07:17:54;417.48;;;83.60;;
64826;SDS011;51265;53.972;12.286;2022-10-31T07:20:25;392.42;;;83.30;;
64826;SDS011;51265;53.972;12.286;2022-10-31T07:22:51;416.70;;;85.50;;
64826;SDS011;51265;53.972;12.286;2022-10-31T07:25:24;338.70;;;76.60;;
64826;SDS011;51265;53.972;12.286;2022-10-31T07:28:23;450.58;;;87.65;;
64826;SDS011;51265;53.972;12.286;2022-10-31T07:30:55;470.65;;;88.68;;
64826;SDS011;51265;53.972;12.286;2022-10-31T07:33:23;584.92;;;102.53;;
64826;SDS011;51265;53.972;12.286;2022-10-31T07:36:12;557.63;;;100.10;;
64826;SDS011;51265;53.972;12.286;2022-10-31T07:38:41;441.27;;;91.28;;
64826;SDS011;51265;53.972;12.286;2022-10-31T07:41:07;418.00;;;90.32;;
64826;SDS011;51265;53.972;12.286;2022-10-31T07:43:39;503.88;;;98.13;;
64826;SDS011;51265;53.972;12.286;2022-10-31T07:46:37;571.83;;;102.22;;
64826;SDS011;51265;53.972;12.286;2022-10-31T07:49:29;583.55;;;104.03;;
64826;SDS011;51265;53.972;12.286;2022-10-31T07:52:27;585.53;;;104.65;;
64826;SDS011;51265;53.972;12.286;2022-10-31T07:55:13;621.70;;;107.15;;
64826;SDS011;51265;53.972;12.286;2022-10-31T07:57:39;586.35;;;106.30;;
64826;SDS011;51265;53.972;12.286;2022-10-31T08:00:07;615.63;;;108.40;;
64826;SDS011;51265;53.972;12.286;2022-10-31T08:02:40;572.00;;;105.65;;
64826;SDS011;51265;53.972;12.286;2022-10-31T08:05:30;820.05;;;128.48;;
64826;SDS011;51265;53.972;12.286;2022-10-31T08:08:27;601.15;;;112.82;;
64826;SDS011;51265;53.972;12.286;2022-10-31T08:10:54;633.08;;;114.72;;
64826;SDS011;51265;53.972;12.286;2022-10-31T08:13:21;590.17;;;110.72;;
64826;SDS011;51265;53.972;12.286;2022-10-31T08:15:49;635.22;;;112.90;;
64826;SDS011;51265;53.972;12.286;2022-10-31T08:18:22;555.05;;;114.28;;
64826;SDS011;51265;53.972;12.286;2022-10-31T08:20:50;713.63;;;119.07;;
64826;SDS011;51265;53.972;12.286;2022-10-31T08:23:17;544.85;;;105.25;;
64826;SDS011;51265;53.972;12.286;2022-10-31T08:25:44;628.28;;;121.13;;
64826;SDS011;51265;53.972;12.286;2022-10-31T08:28:12;637.88;;;117.13;;
64826;SDS011;51265;53.972;12.286;2022-10-31T08:30:42;595.15;;;112.57;;
64826;SDS011;51265;53.972;12.286;2022-10-31T08:33:26;612.83;;;111.72;;
64826;SDS011;51265;53.972;12.286;2022-10-31T08:36:11;702.30;;;125.95;;
64826;SDS011;51265;53.972;12.286;2022-10-31T08:39:06;665.53;;;117.50;;
64826;SDS011;51265;53.972;12.286;2022-10-31T08:41:32;662.60;;;122.75;;
64826;SDS011;51265;53.972;12.286;2022-10-31T08:44:00;400.60;;;95.00;;
64826;SDS011;51265;53.972;12.286;2022-10-31T08:46:26;587.58;;;116.22;;
64826;SDS011;51265;53.972;12.286;2022-10-31T08:48:52;682.47;;;119.03;;
64826;SDS011;51265;53.972;12.286;2022-10-31T08:51:23;529.60;;;109.05;;
64826;SDS011;51265;53.972;12.286;2022-10-31T08:53:52;681.40;;;121.57;;
64826;SDS011;51265;53.972;12.286;2022-10-31T08:56:39;545.13;;;110.80;;
64826;SDS011;51265;53.972;12.286;2022-10-31T08:59:20;676.50;;;116.72;;
64826;SDS011;51265;53.972;12.286;2022-10-31T09:02:12;746.72;;;122.85;;
64826;SDS011;51265;53.972;12.286;2022-10-31T09:04:38;773.83;;;122.55;;
64826;SDS011;51265;53.972;12.286;2022-10-31T09:07:04;839.47;;;127.47;;
64826;SDS011;51265;53.972;12.286;2022-10-31T09:09:31;620.05;;;111.80;;
64826;SDS011;51265;53.972;12.286;2022-10-31T09:11:57;687.88;;;118.30;;
64826;SDS011;51265;53.972;12.286;2022-10-31T09:14:42;617.78;;;112.55;;
64826;SDS011;51265;53.972;12.286;2022-10-31T09:17:25;730.33;;;118.07;;
64826;SDS011;51265;53.972;12.286;2022-10-31T09:20:12;434.60;;;95.82;;
64826;SDS011;51265;53.972;12.286;2022-10-31T09:22:38;388.58;;;91.55;;
64826;SDS011;51265;53.972;12.286;2022-10-31T09:25:04;468.20;;;97.82;;
64826;SDS011;51265;53.972;12.286;2022-10-31T09:27:30;551.70;;;103.30;;
64826;SDS011;51265;53.972;12.286;2022-10-31T09:29:57;643.03;;;112.45;;
64826;SDS011;51265;53.972;12.286;2022-10-31T09:32:23;607.20;;;109.13;;
64826;SDS011;51265;53.972;12.286;2022-10-31T09:34:50;559.45;;;105.80;;
64826;SDS011;51265;53.972;12.286;2022-10-31T09:37:19;536.78;;;104.40;;
64826;SDS011;51265;53.972;12.286;2022-10-31T09:39:45;597.08;;;107.40;;
64826;SDS011;51265;53.972;12.286;2022-10-31T09:42:39;677.80;;;113.35;;
64826;SDS011;51265;53.972;12.286;2022-10-31T09:45:37;301.08;;;79.57;;
64826;SDS011;51265;53.972;12.286;2022-10-31T09:51:34;559.50;;;99.30;;
64826;SDS011;51265;53.972;12.286;2022-10-31T09:57:15;588.42;;;102.32;;
64826;SDS011;51265;53.972;12.286;2022-10-31T09:59:47;552.08;;;101.05;;
64826;SDS011;51265;53.972;12.286;2022-10-31T10:05:05;591.78;;;105.22;;
64826;SDS011;51265;53.972;12.286;2022-10-31T10:14:18;488.80;;;95.90;;
64826;SDS011;51265;53.972;12.286;2022-10-31T10:30:17;450.92;;;90.05;;
64826;SDS011;51265;53.972;12.286;2022-10-31T10:35:34;382.30;;;81.90;;
64826;SDS011;51265;53.972;12.286;2022-10-31T10:40:53;419.85;;;85.78;;
64826;SDS011;51265;53.972;12.286;2022-10-31T10:43:38;381.50;;;80.88;;
64826;SDS011;51265;53.972;12.286;2022-10-31T10:56:41;379.45;;;77.82;;
64826;SDS011;51265;53.972;12.286;2022-10-31T10:59:16;348.40;;;76.00;;
64826;SDS011;51265;53.972;12.286;2022-10-31T11:01:45;328.83;;;73.32;;
64826;SDS011;51265;53.972;12.286;2022-10-31T11:04:24;321.60;;;73.32;;
64826;SDS011;51265;53.972;12.286;2022-10-31T11:07:02;291.67;;;69.00;;
64826;SDS011;51265;53.972;12.286;2022-10-31T11:09:29;280.88;;;71.28;;
64826;SDS011;51265;53.972;12.286;2022-10-31T11:11:55;294.23;;;70.95;;
64826;SDS011;51265;53.972;12.286;2022-10-31T11:14:23;288.02;;;71.07;;
64826;SDS011;51265;53.972;12.286;2022-10-31T11:16:52;302.77;;;69.75;;
64826;SDS011;51265;53.972;12.286;2022-10-31T11:19:33;273.77;;;70.88;;
64826;SDS011;51265;53.972;12.286;2022-10-31T11:22:06;271.15;;;69.63;;
64826;SDS011;51265;53.972;12.286;2022-10-31T11:24:38;306.90;;;68.20;;
64826;SDS011;51265;53.972;12.286;2022-10-31T11:27:16;278.42;;;67.85;;
64826;SDS011;51265;53.972;12.286;2022-10-31T11:29:46;282.13;;;66.82;;
64826;SDS011;51265;53.972;12.286;2022-10-31T11:32:21;285.75;;;69.85;;
64826;SDS011;51265;53.972;12.286;2022-10-31T11:34:54;237.50;;;65.72;;
64826;SDS011;51265;53.972;12.286;2022-10-31T11:37:25;257.55;;;66.80;;
64826;SDS011;51265;53.972;12.286;2022-10-31T11:39:54;262.73;;;67.10;;
64826;SDS011;51265;53.972;12.286;2022-10-31T11:42:23;218.50;;;61.22;;
64826;SDS011;51265;53.972;12.286;2022-10-31T11:44:53;208.77;;;60.60;;
64826;SDS011;51265;53.972;12.286;2022-10-31T11:47:27;218.57;;;61.20;;
64826;SDS011;51265;53.972;12.286;2022-10-31T11:49:56;205.13;;;59.75;;
64826;SDS011;51265;53.972;12.286;2022-10-31T11:52:24;193.68;;;55.63;;
64826;SDS011;51265;53.972;12.286;2022-10-31T11:54:53;200.15;;;55.17;;
64826;SDS011;51265;53.972;12.286;2022-10-31T11:57:33;182.13;;;52.80;;
64826;SDS011;51265;53.972;12.286;2022-10-31T12:00:22;178.95;;;51.47;;
64826;SDS011;51265;53.972;12.286;2022-10-31T12:03:03;172.13;;;52.75;;
64826;SDS011;51265;53.972;12.286;2022-10-31T12:08:03;158.73;;;49.75;;
64826;SDS011;51265;53.972;12.286;2022-10-31T12:10:32;151.13;;;49.83;;
64826;SDS011;51265;53.972;12.286;2022-10-31T12:16:02;147.63;;;46.53;;
64826;SDS011;51265;53.972;12.286;2022-10-31T12:23:57;148.15;;;46.47;;
64826;SDS011;51265;53.972;12.286;2022-10-31T12:29:37;125.60;;;43.67;;
64826;SDS011;51265;53.972;12.286;2022-10-31T12:32:30;134.55;;;44.30;;
64826;SDS011;51265;53.972;12.286;2022-10-31T12:35:10;130.98;;;41.85;;
64826;SDS011;51265;53.972;12.286;2022-10-31T12:46:00;116.50;;;37.15;;
64826;SDS011;51265;53.972;12.286;2022-10-31T12:53:52;111.72;;;38.58;;
64826;SDS011;51265;53.972;12.286;2022-10-31T12:59:01;109.43;;;37.78;;
64826;SDS011;51265;53.972;12.286;2022-10-31T13:01:37;105.28;;;36.38;;
64826;SDS011;51265;53.972;12.286;2022-10-31T13:07:15;109.63;;;33.63;;
64826;SDS011;51265;53.972;12.286;2022-10-31T13:09:54;89.30;;;31.88;;
64826;SDS011;51265;53.972;12.286;2022-10-31T13:12:26;99.90;;;32.92;;
64826;SDS011;51265;53.972;12.286;2022-10-31T13:14:55;90.32;;;32.50;;
64826;SDS011;51265;53.972;12.286;2022-10-31T13:17:29;111.15;;;35.03;;
64826;SDS011;51265;53.972;12.286;2022-10-31T13:23:00;102.28;;;32.05;;
64826;SDS011;51265;53.972;12.286;2022-10-31T13:25:33;123.38;;;32.92;;
64826;SDS011;51265;53.972;12.286;2022-10-31T13:28:12;122.15;;;33.47;;
64826;SDS011;51265;53.972;12.286;2022-10-31T13:30:52;119.35;;;33.75;;
64826;SDS011;51265;53.972;12.286;2022-10-31T13:33:26;125.38;;;32.85;;
64826;SDS011;51265;53.972;12.286;2022-10-31T13:41:47;122.53;;;32.42;;
64826;SDS011;51265;53.972;12.286;2022-10-31T13:44:23;95.30;;;29.63;;
64826;SDS011;51265;53.972;12.286;2022-10-31T13:46:52;104.85;;;30.85;;
64826;SDS011;51265;53.972;12.286;2022-10-31T13:57:15;94.15;;;27.58;;
64826;SDS011;51265;53.972;12.286;2022-10-31T14:02:51;97.45;;;28.02;;
64826;SDS011;51265;53.972;12.286;2022-10-31T14:08:01;97.20;;;27.33;;
64826;SDS011;51265;53.972;12.286;2022-10-31T14:10:32;113.82;;;29.50;;
64826;SDS011;51265;53.972;12.286;2022-10-31T14:13:26;102.90;;;27.77;;
64826;SDS011;51265;53.972;12.286;2022-10-31T14:16:07;87.90;;;24.58;;
64826;SDS011;51265;53.972;12.286;2022-10-31T14:18:44;102.65;;;26.77;;
64826;SDS011;51265;53.972;12.286;2022-10-31T14:23:48;84.67;;;24.93;;
64826;SDS011;51265;53.972;12.286;2022-10-31T14:28:48;98.10;;;26.65;;
64826;SDS011;51265;53.972;12.286;2022-10-31T14:50:44;196.55;;;28.30;;
64826;SDS011;51265;53.972;12.286;2022-10-31T14:53:23;292.80;;;29.75;;
64826;SDS011;51265;53.972;12.286;2022-10-31T14:55:55;245.30;;;28.83;;
64826;SDS011;51265;53.972;12.286;2022-10-31T14:58:33;108.40;;;24.02;;
64826;SDS011;51265;53.972;12.286;2022-10-31T15:01:04;119.32;;;25.73;;
64826;SDS011;51265;53.972;12.286;2022-10-31T15:03:32;316.27;;;30.27;;
64826;SDS011;51265;53.972;12.286;2022-10-31T15:06:11;129.32;;;24.90;;
64826;SDS011;51265;53.972;12.286;2022-10-31T15:11:14;258.60;;;29.95;;
64826;SDS011;51265;53.972;12.286;2022-10-31T15:16:15;422.98;;;32.08;;
64826;SDS011;51265;53.972;12.286;2022-10-31T15:18:59;254.10;;;28.95;;
64826;SDS011;51265;53.972;12.286;2022-10-31T15:21:28;306.77;;;28.50;;
64826;SDS011;51265;53.972;12.286;2022-10-31T15:23:55;231.68;;;26.80;;
64826;SDS011;51265;53.972;12.286;2022-10-31T15:26:38;224.60;;;26.90;;
64826;SDS011;51265;53.972;12.286;2022-10-31T15:29:12;103.90;;;24.23;;
64826;SDS011;51265;53.972;12.286;2022-10-31T15:31:57;129.13;;;24.42;;
64826;SDS011;51265;53.972;12.286;2022-10-31T15:34:31;143.75;;;24.73;;
64826;SDS011;51265;53.972;12.286;2022-10-31T15:36:59;111.50;;;34.33;;
64826;SDS011;51265;53.972;12.286;2022-10-31T15:39:25;98.93;;;27.20;;
64826;SDS011;51265;53.972;12.286;2022-10-31T15:41:53;89.10;;;24.00;;
64826;SDS011;51265;53.972;12.286;2022-10-31T15:44:25;104.20;;;23.83;;
64826;SDS011;51265;53.972;12.286;2022-10-31T15:47:04;102.20;;;23.95;;
64826;SDS011;51265;53.972;12.286;2022-10-31T15:52:14;90.40;;;23.15;;
64826;SDS011;51265;53.972;12.286;2022-10-31T15:54:50;83.70;;;23.23;;
64826;SDS011;51265;53.972;12.286;2022-10-31T15:57:23;89.78;;;23.42;;
64826;SDS011;51265;53.972;12.286;2022-10-31T15:59:52;83.43;;;23.33;;
64826;SDS011;51265;53.972;12.286;2022-10-31T16:02:20;70.40;;;20.38;;
64826;SDS011;51265;53.972;12.286;2022-10-31T16:07:23;95.72;;;24.02;;
64826;SDS011;51265;53.972;12.286;2022-10-31T16:09:54;70.90;;;20.92;;
64826;SDS011;51265;53.972;12.286;2022-10-31T16:12:41;65.68;;;21.85;;
64826;SDS011;51265;53.972;12.286;2022-10-31T16:15:14;72.85;;;20.77;;
64826;SDS011;51265;53.972;12.286;2022-10-31T16:17:43;60.70;;;19.63;;
64826;SDS011;51265;53.972;12.286;2022-10-31T16:20:18;68.07;;;22.08;;
64826;SDS011;51265;53.972;12.286;2022-10-31T16:22:49;73.32;;;22.30;;
64826;SDS011;51265;53.972;12.286;2022-10-31T16:25:19;63.95;;;19.58;;
64826;SDS011;51265;53.972;12.286;2022-10-31T16:27:52;62.00;;;20.65;;
64826;SDS011;51265;53.972;12.286;2022-10-31T16:33:04;65.03;;;27.58;;
64826;SDS011;51265;53.972;12.286;2022-10-31T16:35:45;61.90;;;24.77;;
64826;SDS011;51265;53.972;12.286;2022-10-31T16:38:23;58.55;;;21.50;;
64826;SDS011;51265;53.972;12.286;2022-10-31T16:40:56;58.38;;;22.58;;
64826;SDS011;51265;53.972;12.286;2022-10-31T16:43:22;53.47;;;20.20;;
64826;SDS011;51265;53.972;12.286;2022-10-31T16:45:52;53.70;;;19.25;;
64826;SDS011;51265;53.972;12.286;2022-10-31T16:48:19;50.30;;;18.35;;
64826;SDS011;51265;53.972;12.286;2022-10-31T16:50:48;55.45;;;18.73;;
64826;SDS011;51265;53.972;12.286;2022-10-31T16:53:15;51.72;;;20.13;;
64826;SDS011;51265;53.972;12.286;2022-10-31T16:58:21;48.25;;;19.00;;
64826;SDS011;51265;53.972;12.286;2022-10-31T17:00:50;52.85;;;20.40;;
64826;SDS011;51265;53.972;12.286;2022-10-31T17:03:18;51.88;;;19.90;;
64826;SDS011;51265;53.972;12.286;2022-10-31T17:05:44;53.75;;;20.17;;
64826;SDS011;51265;53.972;12.286;2022-10-31T17:08:11;51.20;;;19.98;;
64826;SDS011;51265;53.972;12.286;2022-10-31T17:10:37;56.55;;;20.58;;
64826;SDS011;51265;53.972;12.286;2022-10-31T17:13:06;57.05;;;21.27;;
64826;SDS011;51265;53.972;12.286;2022-10-31T17:15:37;51.30;;;20.83;;
64826;SDS011;51265;53.972;12.286;2022-10-31T17:18:12;57.72;;;21.83;;
64826;SDS011;51265;53.972;12.286;2022-10-31T17:20:42;52.85;;;22.00;;
64826;SDS011;51265;53.972;12.286;2022-10-31T17:23:09;66.68;;;23.80;;
64826;SDS011;51265;53.972;12.286;2022-10-31T17:25:39;55.40;;;22.13;;
64826;SDS011;51265;53.972;12.286;2022-10-31T17:28:06;65.57;;;22.88;;